sensor_id;sensor_type;location;lat;lon;timestamp;P1;durP1;ratioP1;P2;durP2;ratioP2
25073;SDS011;13066;52.042;5.648;2024-02-15T00:00:13;10.15;;;9.07;;
25073;SDS011;13066;52.042;5.648;2024-02-15T00:02:43;11.23;;;9.32;;
25073;SDS011;13066;52.042;5.648;2024-02-15T00:05:11;10.50;;;8.80;;
25073;SDS011;13066;52.042;5.648;2024-02-15T00:07:41;11.45;;;8.18;;
25073;SDS011;13066;52.042;5.648;2024-02-15T00:10:10;10.30;;;8.40;;
25073;SDS011;13066;52.042;5.648;2024-02-15T00:12:38;9.68;;;7.35;;
25073;SDS011;13066;52.042;5.648;2024-02-15T00:15:07;9.40;;;7.32;;
25073;SDS011;13066;52.042;5.648;2024-02-15T00:17:37;11.63;;;6.75;;
25073;SDS011;13066;52.042;5.648;2024-02-15T00:20:05;11.25;;;7.50;;
25073;SDS011;13066;52.042;5.648;2024-02-15T00:22:36;8.02;;;6.78;;
25073;SDS011;13066;52.042;5.648;2024-02-15T00:25:05;7.85;;;6.60;;
25073;SDS011;13066;52.042;5.648;2024-02-15T00:27:35;9.60;;;6.47;;
25073;SDS011;13066;52.042;5.648;2024-02-15T00:30:04;8.20;;;6.53;;
25073;SDS011;13066;52.042;5.648;2024-02-15T00:32:34;7.60;;;6.65;;
25073;SDS011;13066;52.042;5.648;2024-02-15T00:35:05;9.05;;;7.10;;
25073;SDS011;13066;52.042;5.648;2024-02-15T00:37:36;8.10;;;6.10;;
25073;SDS011;13066;52.042;5.648;2024-02-15T00:40:05;8.18;;;6.22;;
25073;SDS011;13066;52.042;5.648;2024-02-15T00:42:34;9.13;;;6.20;;
25073;SDS011;13066;52.042;5.648;2024-02-15T00:45:02;8.00;;;6.10;;
25073;SDS011;13066;52.042;5.648;2024-02-15T00:47:31;7.10;;;5.78;;
25073;SDS011;13066;52.042;5.648;2024-02-15T00:49:59;9.35;;;7.10;;
25073;SDS011;13066;52.042;5.648;2024-02-15T00:52:29;9.18;;;7.30;;
25073;SDS011;13066;52.042;5.648;2024-02-15T00:54:57;10.02;;;8.40;;
25073;SDS011;13066;52.042;5.648;2024-02-15T00:57:25;11.77;;;9.82;;
25073;SDS011;13066;52.042;5.648;2024-02-15T00:59:53;14.95;;;12.70;;
25073;SDS011;13066;52.042;5.648;2024-02-15T01:02:21;14.55;;;13.05;;
25073;SDS011;13066;52.042;5.648;2024-02-15T01:04:50;16.38;;;14.00;;
25073;SDS011;13066;52.042;5.648;2024-02-15T01:07:19;18.05;;;16.25;;
25073;SDS011;13066;52.042;5.648;2024-02-15T01:09:49;17.45;;;15.65;;
25073;SDS011;13066;52.042;5.648;2024-02-15T01:12:17;18.88;;;16.95;;
25073;SDS011;13066;52.042;5.648;2024-02-15T01:14:45;20.10;;;17.80;;
25073;SDS011;13066;52.042;5.648;2024-02-15T01:17:14;19.98;;;18.08;;
25073;SDS011;13066;52.042;5.648;2024-02-15T01:19:42;19.42;;;17.55;;
25073;SDS011;13066;52.042;5.648;2024-02-15T01:22:10;21.45;;;19.15;;
25073;SDS011;13066;52.042;5.648;2024-02-15T01:24:39;18.50;;;16.80;;
25073;SDS011;13066;52.042;5.648;2024-02-15T01:27:08;19.35;;;17.45;;
25073;SDS011;13066;52.042;5.648;2024-02-15T01:29:36;18.25;;;16.50;;
25073;SDS011;13066;52.042;5.648;2024-02-15T01:32:05;18.67;;;16.70;;
25073;SDS011;13066;52.042;5.648;2024-02-15T01:34:33;19.17;;;17.27;;
25073;SDS011;13066;52.042;5.648;2024-02-15T01:37:01;18.00;;;16.20;;
25073;SDS011;13066;52.042;5.648;2024-02-15T01:39:29;17.77;;;16.17;;
25073;SDS011;13066;52.042;5.648;2024-02-15T01:41:57;18.17;;;16.38;;
25073;SDS011;13066;52.042;5.648;2024-02-15T01:44:27;18.65;;;16.88;;
25073;SDS011;13066;52.042;5.648;2024-02-15T01:46:55;17.45;;;15.65;;
25073;SDS011;13066;52.042;5.648;2024-02-15T01:49:23;16.92;;;15.23;;
25073;SDS011;13066;52.042;5.648;2024-02-15T01:51:51;16.70;;;14.93;;
25073;SDS011;13066;52.042;5.648;2024-02-15T01:54:20;15.65;;;13.98;;
25073;SDS011;13066;52.042;5.648;2024-02-15T01:56:48;15.52;;;13.85;;
25073;SDS011;13066;52.042;5.648;2024-02-15T01:59:17;18.73;;;13.85;;
25073;SDS011;13066;52.042;5.648;2024-02-15T02:01:47;15.48;;;13.38;;
25073;SDS011;13066;52.042;5.648;2024-02-15T02:04:15;13.95;;;12.40;;
25073;SDS011;13066;52.042;5.648;2024-02-15T02:06:43;14.05;;;12.05;;
25073;SDS011;13066;52.042;5.648;2024-02-15T02:09:11;14.07;;;11.68;;
25073;SDS011;13066;52.042;5.648;2024-02-15T02:11:40;12.43;;;11.23;;
25073;SDS011;13066;52.042;5.648;2024-02-15T02:14:09;11.95;;;10.75;;
25073;SDS011;13066;52.042;5.648;2024-02-15T02:16:38;14.07;;;11.80;;
25073;SDS011;13066;52.042;5.648;2024-02-15T02:19:08;13.35;;;11.13;;
25073;SDS011;13066;52.042;5.648;2024-02-15T02:21:37;13.40;;;10.68;;
25073;SDS011;13066;52.042;5.648;2024-02-15T02:24:08;13.32;;;11.10;;
25073;SDS011;13066;52.042;5.648;2024-02-15T02:26:42;12.55;;;10.82;;
25073;SDS011;13066;52.042;5.648;2024-02-15T02:29:11;13.18;;;10.60;;
25073;SDS011;13066;52.042;5.648;2024-02-15T02:31:39;12.98;;;10.15;;
25073;SDS011;13066;52.042;5.648;2024-02-15T02:34:09;13.45;;;10.35;;
25073;SDS011;13066;52.042;5.648;2024-02-15T02:36:37;13.20;;;10.63;;
25073;SDS011;13066;52.042;5.648;2024-02-15T02:39:07;12.90;;;10.77;;
25073;SDS011;13066;52.042;5.648;2024-02-15T02:41:35;13.48;;;10.85;;
25073;SDS011;13066;52.042;5.648;2024-02-15T02:44:05;13.40;;;10.75;;
25073;SDS011;13066;52.042;5.648;2024-02-15T02:46:34;12.85;;;11.23;;
25073;SDS011;13066;52.042;5.648;2024-02-15T02:49:02;16.25;;;10.95;;
25073;SDS011;13066;52.042;5.648;2024-02-15T02:51:30;13.60;;;10.98;;
25073;SDS011;13066;52.042;5.648;2024-02-15T02:53:59;13.85;;;10.85;;
25073;SDS011;13066;52.042;5.648;2024-02-15T02:56:27;14.60;;;11.65;;
25073;SDS011;13066;52.042;5.648;2024-02-15T02:58:56;14.27;;;10.88;;
25073;SDS011;13066;52.042;5.648;2024-02-15T03:01:26;14.35;;;11.40;;
25073;SDS011;13066;52.042;5.648;2024-02-15T03:03:55;14.25;;;10.68;;
25073;SDS011;13066;52.042;5.648;2024-02-15T03:06:24;12.88;;;10.35;;
25073;SDS011;13066;52.042;5.648;2024-02-15T03:08:52;15.73;;;10.75;;
25073;SDS011;13066;52.042;5.648;2024-02-15T03:11:20;15.63;;;10.40;;
25073;SDS011;13066;52.042;5.648;2024-02-15T03:13:49;12.55;;;9.98;;
25073;SDS011;13066;52.042;5.648;2024-02-15T03:16:17;16.70;;;10.40;;
25073;SDS011;13066;52.042;5.648;2024-02-15T03:18:46;13.38;;;9.88;;
25073;SDS011;13066;52.042;5.648;2024-02-15T03:21:15;14.23;;;9.68;;
25073;SDS011;13066;52.042;5.648;2024-02-15T03:23:44;13.05;;;9.15;;
25073;SDS011;13066;52.042;5.648;2024-02-15T03:26:12;17.05;;;10.55;;
25073;SDS011;13066;52.042;5.648;2024-02-15T03:28:40;14.85;;;10.45;;
25073;SDS011;13066;52.042;5.648;2024-02-15T03:31:08;12.70;;;9.95;;
25073;SDS011;13066;52.042;5.648;2024-02-15T03:33:36;11.98;;;8.75;;
25073;SDS011;13066;52.042;5.648;2024-02-15T03:36:07;12.85;;;8.93;;
25073;SDS011;13066;52.042;5.648;2024-02-15T03:38:37;13.00;;;8.65;;
25073;SDS011;13066;52.042;5.648;2024-02-15T03:41:05;11.90;;;8.55;;
25073;SDS011;13066;52.042;5.648;2024-02-15T03:43:33;11.90;;;7.68;;
25073;SDS011;13066;52.042;5.648;2024-02-15T03:46:01;12.82;;;8.73;;
25073;SDS011;13066;52.042;5.648;2024-02-15T03:48:29;13.10;;;8.50;;
25073;SDS011;13066;52.042;5.648;2024-02-15T03:50:58;11.48;;;7.45;;
25073;SDS011;13066;52.042;5.648;2024-02-15T03:53:29;14.45;;;8.25;;
25073;SDS011;13066;52.042;5.648;2024-02-15T03:56:00;13.27;;;7.85;;
25073;SDS011;13066;52.042;5.648;2024-02-15T03:58:28;13.73;;;7.97;;
25073;SDS011;13066;52.042;5.648;2024-02-15T04:00:57;14.30;;;8.70;;
25073;SDS011;13066;52.042;5.648;2024-02-15T04:03:25;13.35;;;8.95;;
25073;SDS011;13066;52.042;5.648;2024-02-15T04:05:53;12.75;;;8.35;;
25073;SDS011;13066;52.042;5.648;2024-02-15T04:08:21;13.18;;;8.50;;
25073;SDS011;13066;52.042;5.648;2024-02-15T04:10:51;14.00;;;8.23;;
25073;SDS011;13066;52.042;5.648;2024-02-15T04:13:19;10.52;;;8.18;;
25073;SDS011;13066;52.042;5.648;2024-02-15T04:15:47;11.65;;;8.07;;
25073;SDS011;13066;52.042;5.648;2024-02-15T04:18:17;12.73;;;7.78;;
25073;SDS011;13066;52.042;5.648;2024-02-15T04:20:45;9.73;;;7.25;;
25073;SDS011;13066;52.042;5.648;2024-02-15T04:23:15;13.82;;;7.40;;
25073;SDS011;13066;52.042;5.648;2024-02-15T04:25:43;9.68;;;7.60;;
25073;SDS011;13066;52.042;5.648;2024-02-15T04:28:19;13.35;;;7.97;;
25073;SDS011;13066;52.042;5.648;2024-02-15T04:30:47;11.98;;;6.97;;
25073;SDS011;13066;52.042;5.648;2024-02-15T04:33:15;13.02;;;7.00;;
25073;SDS011;13066;52.042;5.648;2024-02-15T04:35:43;11.27;;;7.22;;
25073;SDS011;13066;52.042;5.648;2024-02-15T04:38:12;12.13;;;6.70;;
25073;SDS011;13066;52.042;5.648;2024-02-15T04:40:40;10.57;;;6.20;;
25073;SDS011;13066;52.042;5.648;2024-02-15T04:43:08;13.45;;;6.78;;
25073;SDS011;13066;52.042;5.648;2024-02-15T04:45:37;11.88;;;6.07;;
25073;SDS011;13066;52.042;5.648;2024-02-15T04:48:06;13.07;;;6.18;;
25073;SDS011;13066;52.042;5.648;2024-02-15T04:50:34;10.52;;;6.18;;
25073;SDS011;13066;52.042;5.648;2024-02-15T04:53:03;11.38;;;6.30;;
25073;SDS011;13066;52.042;5.648;2024-02-15T04:55:32;10.23;;;5.88;;
25073;SDS011;13066;52.042;5.648;2024-02-15T04:58:02;9.80;;;5.60;;
25073;SDS011;13066;52.042;5.648;2024-02-15T05:00:31;12.00;;;5.60;;
25073;SDS011;13066;52.042;5.648;2024-02-15T05:03:00;10.70;;;5.82;;
25073;SDS011;13066;52.042;5.648;2024-02-15T05:05:29;10.20;;;5.18;;
25073;SDS011;13066;52.042;5.648;2024-02-15T05:07:57;9.25;;;4.97;;
25073;SDS011;13066;52.042;5.648;2024-02-15T05:10:28;9.80;;;4.95;;
25073;SDS011;13066;52.042;5.648;2024-02-15T05:12:55;11.48;;;5.15;;
25073;SDS011;13066;52.042;5.648;2024-02-15T05:15:24;11.95;;;5.45;;
25073;SDS011;13066;52.042;5.648;2024-02-15T05:17:52;10.20;;;4.82;;
25073;SDS011;13066;52.042;5.648;2024-02-15T05:20:21;7.32;;;4.72;;
25073;SDS011;13066;52.042;5.648;2024-02-15T05:22:52;10.25;;;4.90;;
25073;SDS011;13066;52.042;5.648;2024-02-15T05:25:20;9.50;;;4.70;;
25073;SDS011;13066;52.042;5.648;2024-02-15T05:27:52;7.68;;;4.70;;
25073;SDS011;13066;52.042;5.648;2024-02-15T05:30:23;11.82;;;4.80;;
25073;SDS011;13066;52.042;5.648;2024-02-15T05:32:52;10.50;;;5.38;;
25073;SDS011;13066;52.042;5.648;2024-02-15T05:35:23;8.18;;;4.95;;
25073;SDS011;13066;52.042;5.648;2024-02-15T05:37:53;9.93;;;4.65;;
25073;SDS011;13066;52.042;5.648;2024-02-15T05:40:22;10.43;;;5.40;;
25073;SDS011;13066;52.042;5.648;2024-02-15T05:42:54;8.20;;;4.75;;
25073;SDS011;13066;52.042;5.648;2024-02-15T05:45:30;8.55;;;5.20;;
25073;SDS011;13066;52.042;5.648;2024-02-15T05:48:03;10.20;;;5.22;;
25073;SDS011;13066;52.042;5.648;2024-02-15T05:50:36;9.57;;;4.93;;
25073;SDS011;13066;52.042;5.648;2024-02-15T05:53:04;11.25;;;4.75;;
25073;SDS011;13066;52.042;5.648;2024-02-15T05:55:34;10.90;;;4.63;;
25073;SDS011;13066;52.042;5.648;2024-02-15T05:58:04;8.32;;;4.57;;
25073;SDS011;13066;52.042;5.648;2024-02-15T06:00:33;9.85;;;4.70;;
25073;SDS011;13066;52.042;5.648;2024-02-15T06:03:01;8.60;;;4.53;;
25073;SDS011;13066;52.042;5.648;2024-02-15T06:05:30;8.05;;;4.63;;
25073;SDS011;13066;52.042;5.648;2024-02-15T06:08:00;10.15;;;5.07;;
25073;SDS011;13066;52.042;5.648;2024-02-15T06:10:28;10.95;;;5.22;;
25073;SDS011;13066;52.042;5.648;2024-02-15T06:12:57;10.77;;;5.10;;
25073;SDS011;13066;52.042;5.648;2024-02-15T06:15:25;8.95;;;4.93;;
25073;SDS011;13066;52.042;5.648;2024-02-15T06:17:54;13.30;;;5.53;;
25073;SDS011;13066;52.042;5.648;2024-02-15T06:20:22;8.85;;;5.07;;
25073;SDS011;13066;52.042;5.648;2024-02-15T06:22:50;10.80;;;4.88;;
25073;SDS011;13066;52.042;5.648;2024-02-15T06:25:21;8.20;;;4.43;;
25073;SDS011;13066;52.042;5.648;2024-02-15T06:27:49;9.38;;;4.40;;
25073;SDS011;13066;52.042;5.648;2024-02-15T06:30:25;8.80;;;4.80;;
25073;SDS011;13066;52.042;5.648;2024-02-15T06:33:18;7.20;;;4.60;;
25073;SDS011;13066;52.042;5.648;2024-02-15T06:36:05;11.02;;;5.07;;
25073;SDS011;13066;52.042;5.648;2024-02-15T06:38:51;9.32;;;4.82;;
25073;SDS011;13066;52.042;5.648;2024-02-15T06:41:39;9.27;;;4.97;;
25073;SDS011;13066;52.042;5.648;2024-02-15T06:44:07;8.50;;;4.97;;
25073;SDS011;13066;52.042;5.648;2024-02-15T06:46:36;8.35;;;4.55;;
25073;SDS011;13066;52.042;5.648;2024-02-15T06:49:05;9.40;;;4.47;;
25073;SDS011;13066;52.042;5.648;2024-02-15T06:51:33;8.40;;;4.68;;
25073;SDS011;13066;52.042;5.648;2024-02-15T06:54:01;7.03;;;4.15;;
25073;SDS011;13066;52.042;5.648;2024-02-15T06:56:29;7.65;;;4.28;;
25073;SDS011;13066;52.042;5.648;2024-02-15T06:58:59;6.13;;;3.90;;
25073;SDS011;13066;52.042;5.648;2024-02-15T07:01:27;6.70;;;4.15;;
25073;SDS011;13066;52.042;5.648;2024-02-15T07:03:56;8.05;;;4.65;;
25073;SDS011;13066;52.042;5.648;2024-02-15T07:06:25;8.13;;;4.80;;
25073;SDS011;13066;52.042;5.648;2024-02-15T07:08:54;7.50;;;4.00;;
25073;SDS011;13066;52.042;5.648;2024-02-15T07:11:24;7.47;;;4.28;;
25073;SDS011;13066;52.042;5.648;2024-02-15T07:13:52;6.88;;;4.30;;
25073;SDS011;13066;52.042;5.648;2024-02-15T07:16:23;9.02;;;4.57;;
25073;SDS011;13066;52.042;5.648;2024-02-15T07:18:51;8.00;;;4.50;;
25073;SDS011;13066;52.042;5.648;2024-02-15T07:21:20;6.63;;;4.18;;
25073;SDS011;13066;52.042;5.648;2024-02-15T07:23:53;6.05;;;3.80;;
25073;SDS011;13066;52.042;5.648;2024-02-15T07:26:22;7.78;;;4.05;;
25073;SDS011;13066;52.042;5.648;2024-02-15T07:28:52;6.47;;;3.90;;
25073;SDS011;13066;52.042;5.648;2024-02-15T07:31:22;8.65;;;4.30;;
25073;SDS011;13066;52.042;5.648;2024-02-15T07:33:51;8.15;;;4.00;;
25073;SDS011;13066;52.042;5.648;2024-02-15T07:36:20;6.38;;;3.90;;
25073;SDS011;13066;52.042;5.648;2024-02-15T07:38:49;5.68;;;3.58;;
25073;SDS011;13066;52.042;5.648;2024-02-15T07:41:18;7.07;;;3.85;;
25073;SDS011;13066;52.042;5.648;2024-02-15T07:43:49;4.25;;;3.33;;
25073;SDS011;13066;52.042;5.648;2024-02-15T07:46:17;5.15;;;3.45;;
25073;SDS011;13066;52.042;5.648;2024-02-15T07:48:47;5.40;;;3.40;;
25073;SDS011;13066;52.042;5.648;2024-02-15T07:51:16;5.20;;;3.58;;
25073;SDS011;13066;52.042;5.648;2024-02-15T07:53:45;6.43;;;3.55;;
25073;SDS011;13066;52.042;5.648;2024-02-15T07:56:15;5.32;;;3.42;;
25073;SDS011;13066;52.042;5.648;2024-02-15T07:58:45;4.15;;;3.25;;
25073;SDS011;13066;52.042;5.648;2024-02-15T08:01:20;5.35;;;3.50;;
25073;SDS011;13066;52.042;5.648;2024-02-15T08:03:52;5.65;;;3.60;;
25073;SDS011;13066;52.042;5.648;2024-02-15T08:06:21;4.93;;;2.97;;
25073;SDS011;13066;52.042;5.648;2024-02-15T08:08:52;5.93;;;3.60;;
25073;SDS011;13066;52.042;5.648;2024-02-15T08:11:20;4.88;;;3.03;;
25073;SDS011;13066;52.042;5.648;2024-02-15T08:13:50;5.68;;;3.30;;
25073;SDS011;13066;52.042;5.648;2024-02-15T08:16:21;5.45;;;3.90;;
25073;SDS011;13066;52.042;5.648;2024-02-15T08:18:50;5.45;;;3.15;;
25073;SDS011;13066;52.042;5.648;2024-02-15T08:21:26;4.53;;;3.20;;
25073;SDS011;13066;52.042;5.648;2024-02-15T08:23:56;3.95;;;3.13;;
25073;SDS011;13066;52.042;5.648;2024-02-15T08:26:25;4.78;;;3.10;;
25073;SDS011;13066;52.042;5.648;2024-02-15T08:28:53;5.30;;;3.30;;
25073;SDS011;13066;52.042;5.648;2024-02-15T08:31:22;4.82;;;2.97;;
25073;SDS011;13066;52.042;5.648;2024-02-15T08:33:51;3.90;;;3.10;;
25073;SDS011;13066;52.042;5.648;2024-02-15T08:36:19;4.07;;;2.95;;
25073;SDS011;13066;52.042;5.648;2024-02-15T08:38:50;4.10;;;3.38;;
25073;SDS011;13066;52.042;5.648;2024-02-15T08:41:18;4.63;;;3.00;;
25073;SDS011;13066;52.042;5.648;2024-02-15T08:43:47;4.88;;;3.00;;
25073;SDS011;13066;52.042;5.648;2024-02-15T08:46:16;3.33;;;2.88;;
25073;SDS011;13066;52.042;5.648;2024-02-15T08:48:44;3.78;;;2.85;;
25073;SDS011;13066;52.042;5.648;2024-02-15T08:51:13;7.95;;;5.82;;
25073;SDS011;13066;52.042;5.648;2024-02-15T08:53:42;9.13;;;7.03;;
25073;SDS011;13066;52.042;5.648;2024-02-15T08:56:12;7.05;;;4.20;;
25073;SDS011;13066;52.042;5.648;2024-02-15T08:58:40;4.13;;;2.97;;
25073;SDS011;13066;52.042;5.648;2024-02-15T09:01:09;4.03;;;2.50;;
25073;SDS011;13066;52.042;5.648;2024-02-15T09:03:39;4.00;;;3.10;;
25073;SDS011;13066;52.042;5.648;2024-02-15T09:06:08;4.22;;;2.60;;
25073;SDS011;13066;52.042;5.648;2024-02-15T09:08:37;5.97;;;2.67;;
25073;SDS011;13066;52.042;5.648;2024-02-15T09:11:05;4.28;;;2.65;;
25073;SDS011;13066;52.042;5.648;2024-02-15T09:13:40;4.20;;;2.65;;
25073;SDS011;13066;52.042;5.648;2024-02-15T09:16:08;4.47;;;2.72;;
25073;SDS011;13066;52.042;5.648;2024-02-15T09:18:38;3.67;;;2.75;;
25073;SDS011;13066;52.042;5.648;2024-02-15T09:21:12;3.90;;;2.78;;
25073;SDS011;13066;52.042;5.648;2024-02-15T09:23:40;4.78;;;2.80;;
25073;SDS011;13066;52.042;5.648;2024-02-15T09:26:08;4.28;;;3.00;;
25073;SDS011;13066;52.042;5.648;2024-02-15T09:28:39;4.50;;;2.90;;
25073;SDS011;13066;52.042;5.648;2024-02-15T09:31:08;4.18;;;2.65;;
25073;SDS011;13066;52.042;5.648;2024-02-15T09:33:38;3.40;;;2.80;;
25073;SDS011;13066;52.042;5.648;2024-02-15T09:36:06;3.55;;;2.50;;
25073;SDS011;13066;52.042;5.648;2024-02-15T09:38:35;5.13;;;3.22;;
25073;SDS011;13066;52.042;5.648;2024-02-15T09:41:03;4.95;;;3.22;;
25073;SDS011;13066;52.042;5.648;2024-02-15T09:43:34;5.20;;;3.42;;
25073;SDS011;13066;52.042;5.648;2024-02-15T09:46:04;5.70;;;4.00;;
25073;SDS011;13066;52.042;5.648;2024-02-15T09:48:33;5.70;;;3.75;;
25073;SDS011;13066;52.042;5.648;2024-02-15T09:51:02;5.90;;;4.25;;
25073;SDS011;13066;52.042;5.648;2024-02-15T09:53:31;6.07;;;4.18;;
25073;SDS011;13066;52.042;5.648;2024-02-15T09:55:59;6.43;;;3.95;;
25073;SDS011;13066;52.042;5.648;2024-02-15T09:58:31;4.82;;;3.75;;
25073;SDS011;13066;52.042;5.648;2024-02-15T10:01:01;7.57;;;3.95;;
25073;SDS011;13066;52.042;5.648;2024-02-15T10:03:36;6.05;;;3.75;;
25073;SDS011;13066;52.042;5.648;2024-02-15T10:06:07;6.47;;;3.88;;
25073;SDS011;13066;52.042;5.648;2024-02-15T10:08:36;5.63;;;3.55;;
25073;SDS011;13066;52.042;5.648;2024-02-15T10:11:05;6.22;;;3.60;;
25073;SDS011;13066;52.042;5.648;2024-02-15T10:13:36;5.60;;;3.35;;
25073;SDS011;13066;52.042;5.648;2024-02-15T10:16:15;6.88;;;3.15;;
25073;SDS011;13066;52.042;5.648;2024-02-15T10:18:45;5.13;;;3.20;;
25073;SDS011;13066;52.042;5.648;2024-02-15T10:21:24;6.07;;;3.25;;
25073;SDS011;13066;52.042;5.648;2024-02-15T10:24:02;6.50;;;3.25;;
25073;SDS011;13066;52.042;5.648;2024-02-15T10:26:33;5.63;;;3.38;;
25073;SDS011;13066;52.042;5.648;2024-02-15T10:29:05;5.82;;;3.60;;
25073;SDS011;13066;52.042;5.648;2024-02-15T10:31:38;8.25;;;3.50;;
25073;SDS011;13066;52.042;5.648;2024-02-15T10:34:08;7.25;;;3.40;;
25073;SDS011;13066;52.042;5.648;2024-02-15T10:36:38;6.07;;;3.25;;
25073;SDS011;13066;52.042;5.648;2024-02-15T10:39:13;6.38;;;3.30;;
25073;SDS011;13066;52.042;5.648;2024-02-15T10:41:48;6.60;;;3.58;;
25073;SDS011;13066;52.042;5.648;2024-02-15T10:44:18;8.07;;;3.70;;
25073;SDS011;13066;52.042;5.648;2024-02-15T10:46:48;6.10;;;3.28;;
25073;SDS011;13066;52.042;5.648;2024-02-15T10:49:18;4.93;;;3.15;;
25073;SDS011;13066;52.042;5.648;2024-02-15T10:51:51;7.85;;;4.88;;
25073;SDS011;13066;52.042;5.648;2024-02-15T10:54:25;10.95;;;6.43;;
25073;SDS011;13066;52.042;5.648;2024-02-15T10:57:03;15.23;;;10.23;;
25073;SDS011;13066;52.042;5.648;2024-02-15T10:59:33;26.35;;;20.15;;
25073;SDS011;13066;52.042;5.648;2024-02-15T11:02:09;23.38;;;17.50;;
25073;SDS011;13066;52.042;5.648;2024-02-15T11:04:54;14.43;;;10.88;;
25073;SDS011;13066;52.042;5.648;2024-02-15T11:07:24;14.40;;;11.30;;
25073;SDS011;13066;52.042;5.648;2024-02-15T11:09:58;24.55;;;21.13;;
25073;SDS011;13066;52.042;5.648;2024-02-15T11:12:27;26.15;;;20.05;;
25073;SDS011;13066;52.042;5.648;2024-02-15T11:14:56;28.63;;;23.85;;
25073;SDS011;13066;52.042;5.648;2024-02-15T11:23:25;19.13;;;15.63;;
25073;SDS011;13066;52.042;5.648;2024-02-15T11:26:03;27.65;;;24.58;;
25073;SDS011;13066;52.042;5.648;2024-02-15T11:28:38;22.23;;;19.70;;
25073;SDS011;13066;52.042;5.648;2024-02-15T11:31:09;18.73;;;16.50;;
25073;SDS011;13066;52.042;5.648;2024-02-15T11:33:42;13.25;;;11.57;;
25073;SDS011;13066;52.042;5.648;2024-02-15T11:36:11;12.98;;;10.73;;
25073;SDS011;13066;52.042;5.648;2024-02-15T11:38:40;9.85;;;6.78;;
25073;SDS011;13066;52.042;5.648;2024-02-15T11:41:09;7.95;;;5.63;;
25073;SDS011;13066;52.042;5.648;2024-02-15T11:43:48;7.50;;;4.32;;
25073;SDS011;13066;52.042;5.648;2024-02-15T11:46:24;5.68;;;4.28;;
25073;SDS011;13066;52.042;5.648;2024-02-15T11:48:58;12.35;;;11.05;;
25073;SDS011;13066;52.042;5.648;2024-02-15T11:51:29;13.50;;;12.05;;
25073;SDS011;13066;52.042;5.648;2024-02-15T11:54:03;13.55;;;11.30;;
25073;SDS011;13066;52.042;5.648;2024-02-15T11:56:48;11.10;;;7.20;;
25073;SDS011;13066;52.042;5.648;2024-02-15T11:59:20;9.90;;;6.45;;
25073;SDS011;13066;52.042;5.648;2024-02-15T12:01:59;9.98;;;6.30;;
25073;SDS011;13066;52.042;5.648;2024-02-15T12:04:46;9.55;;;7.30;;
25073;SDS011;13066;52.042;5.648;2024-02-15T12:07:31;13.73;;;7.18;;
25073;SDS011;13066;52.042;5.648;2024-02-15T12:10:32;11.02;;;7.97;;
25073;SDS011;13066;52.042;5.648;2024-02-15T12:13:18;6.35;;;5.75;;
25073;SDS011;13066;52.042;5.648;2024-02-15T12:16:04;6.95;;;4.63;;
25073;SDS011;13066;52.042;5.648;2024-02-15T12:18:50;6.72;;;4.35;;
25073;SDS011;13066;52.042;5.648;2024-02-15T12:21:23;7.55;;;5.10;;
25073;SDS011;13066;52.042;5.648;2024-02-15T12:23:52;8.38;;;6.50;;
25073;SDS011;13066;52.042;5.648;2024-02-15T12:26:20;8.02;;;5.00;;
25073;SDS011;13066;52.042;5.648;2024-02-15T12:28:50;9.50;;;5.32;;
25073;SDS011;13066;52.042;5.648;2024-02-15T12:31:22;6.88;;;4.03;;
25073;SDS011;13066;52.042;5.648;2024-02-15T12:33:59;5.85;;;3.70;;
25073;SDS011;13066;52.042;5.648;2024-02-15T12:36:35;7.13;;;4.25;;
25073;SDS011;13066;52.042;5.648;2024-02-15T12:39:05;11.00;;;5.70;;
25073;SDS011;13066;52.042;5.648;2024-02-15T12:44:08;7.25;;;5.10;;
25073;SDS011;13066;52.042;5.648;2024-02-15T12:46:37;6.55;;;4.60;;
25073;SDS011;13066;52.042;5.648;2024-02-15T12:49:07;4.47;;;3.63;;
25073;SDS011;13066;52.042;5.648;2024-02-15T12:51:42;6.10;;;3.53;;
25073;SDS011;13066;52.042;5.648;2024-02-15T12:54:19;5.13;;;3.10;;
25073;SDS011;13066;52.042;5.648;2024-02-15T12:56:48;4.63;;;3.47;;
25073;SDS011;13066;52.042;5.648;2024-02-15T12:59:18;4.93;;;3.25;;
25073;SDS011;13066;52.042;5.648;2024-02-15T13:01:47;4.75;;;3.17;;
25073;SDS011;13066;52.042;5.648;2024-02-15T13:04:21;3.83;;;3.08;;
25073;SDS011;13066;52.042;5.648;2024-02-15T13:06:52;4.25;;;2.97;;
25073;SDS011;13066;52.042;5.648;2024-02-15T13:09:20;4.30;;;3.05;;
25073;SDS011;13066;52.042;5.648;2024-02-15T13:11:49;4.88;;;3.15;;
25073;SDS011;13066;52.042;5.648;2024-02-15T13:14:20;4.70;;;2.97;;
25073;SDS011;13066;52.042;5.648;2024-02-15T13:16:50;5.78;;;3.20;;
25073;SDS011;13066;52.042;5.648;2024-02-15T13:19:18;5.57;;;3.45;;
25073;SDS011;13066;52.042;5.648;2024-02-15T13:21:47;5.43;;;3.28;;
25073;SDS011;13066;52.042;5.648;2024-02-15T13:24:20;5.18;;;3.10;;
25073;SDS011;13066;52.042;5.648;2024-02-15T13:26:52;5.40;;;3.20;;
25073;SDS011;13066;52.042;5.648;2024-02-15T13:29:25;5.53;;;3.53;;
25073;SDS011;13066;52.042;5.648;2024-02-15T13:31:53;5.10;;;3.00;;
25073;SDS011;13066;52.042;5.648;2024-02-15T13:34:21;5.45;;;3.00;;
25073;SDS011;13066;52.042;5.648;2024-02-15T13:36:51;6.43;;;3.40;;
25073;SDS011;13066;52.042;5.648;2024-02-15T13:39:22;6.22;;;3.10;;
25073;SDS011;13066;52.042;5.648;2024-02-15T13:41:50;5.45;;;3.30;;
25073;SDS011;13066;52.042;5.648;2024-02-15T13:44:19;7.00;;;3.60;;
25073;SDS011;13066;52.042;5.648;2024-02-15T13:46:47;4.13;;;2.90;;
25073;SDS011;13066;52.042;5.648;2024-02-15T13:49:16;4.57;;;2.88;;
25073;SDS011;13066;52.042;5.648;2024-02-15T13:51:57;5.78;;;2.80;;
25073;SDS011;13066;52.042;5.648;2024-02-15T13:54:30;4.40;;;3.00;;
25073;SDS011;13066;52.042;5.648;2024-02-15T13:56:58;5.55;;;2.63;;
25073;SDS011;13066;52.042;5.648;2024-02-15T13:59:27;5.28;;;2.88;;
25073;SDS011;13066;52.042;5.648;2024-02-15T14:01:56;6.85;;;2.83;;
25073;SDS011;13066;52.042;5.648;2024-02-15T14:04:24;5.75;;;2.75;;
25073;SDS011;13066;52.042;5.648;2024-02-15T14:06:53;6.43;;;2.80;;
25073;SDS011;13066;52.042;5.648;2024-02-15T14:09:23;6.55;;;2.40;;
25073;SDS011;13066;52.042;5.648;2024-02-15T14:11:54;4.47;;;2.38;;
25073;SDS011;13066;52.042;5.648;2024-02-15T14:14:22;4.60;;;2.80;;
25073;SDS011;13066;52.042;5.648;2024-02-15T14:16:50;4.75;;;2.72;;
25073;SDS011;13066;52.042;5.648;2024-02-15T14:19:19;5.03;;;2.75;;
25073;SDS011;13066;52.042;5.648;2024-02-15T14:21:47;6.40;;;3.10;;
25073;SDS011;13066;52.042;5.648;2024-02-15T14:24:16;3.70;;;2.47;;
25073;SDS011;13066;52.042;5.648;2024-02-15T14:26:45;4.78;;;2.70;;
25073;SDS011;13066;52.042;5.648;2024-02-15T14:29:15;4.40;;;2.90;;
25073;SDS011;13066;52.042;5.648;2024-02-15T14:31:47;4.65;;;2.60;;
25073;SDS011;13066;52.042;5.648;2024-02-15T14:34:38;4.63;;;2.25;;
25073;SDS011;13066;52.042;5.648;2024-02-15T14:37:07;5.38;;;2.80;;
25073;SDS011;13066;52.042;5.648;2024-02-15T14:39:36;5.38;;;3.28;;
25073;SDS011;13066;52.042;5.648;2024-02-15T14:42:04;7.97;;;3.40;;
25073;SDS011;13066;52.042;5.648;2024-02-15T14:44:37;8.10;;;3.40;;
25073;SDS011;13066;52.042;5.648;2024-02-15T14:47:05;5.40;;;3.50;;
25073;SDS011;13066;52.042;5.648;2024-02-15T14:49:34;5.30;;;3.40;;
25073;SDS011;13066;52.042;5.648;2024-02-15T14:52:02;6.38;;;3.65;;
25073;SDS011;13066;52.042;5.648;2024-02-15T14:54:31;3.50;;;2.90;;
25073;SDS011;13066;52.042;5.648;2024-02-15T14:57:00;6.55;;;2.90;;
25073;SDS011;13066;52.042;5.648;2024-02-15T14:59:28;3.25;;;2.35;;
25073;SDS011;13066;52.042;5.648;2024-02-15T15:01:57;3.40;;;2.15;;
25073;SDS011;13066;52.042;5.648;2024-02-15T15:04:37;4.78;;;2.38;;
25073;SDS011;13066;52.042;5.648;2024-02-15T15:07:34;5.60;;;3.20;;